sensor_id;sensor_type;location;lat;lon;timestamp;P1;durP1;ratioP1;P2;durP2;ratioP2
69334;SDS011;56477;52.742;15.242;2022-12-07T00:00:54;17.80;;;6.40;;
69334;SDS011;56477;52.742;15.242;2022-12-07T00:03:21;16.55;;;6.15;;
69334;SDS011;56477;52.742;15.242;2022-12-07T00:05:47;18.50;;;6.57;;
69334;SDS011;56477;52.742;15.242;2022-12-07T00:08:13;21.58;;;8.02;;
69334;SDS011;56477;52.742;15.242;2022-12-07T00:10:38;23.80;;;8.37;;
69334;SDS011;56477;52.742;15.242;2022-12-07T00:13:04;18.08;;;6.32;;
69334;SDS011;56477;52.742;15.242;2022-12-07T00:15:30;16.70;;;6.40;;
69334;SDS011;56477;52.742;15.242;2022-12-07T00:17:56;12.95;;;4.03;;
69334;SDS011;56477;52.742;15.242;2022-12-07T00:20:22;21.35;;;7.90;;
69334;SDS011;56477;52.742;15.242;2022-12-07T00:22:48;22.48;;;8.35;;
69334;SDS011;56477;52.742;15.242;2022-12-07T00:25:14;20.83;;;7.87;;
69334;SDS011;56477;52.742;15.242;2022-12-07T00:27:40;12.60;;;4.40;;
69334;SDS011;56477;52.742;15.242;2022-12-07T00:30:05;15.53;;;6.20;;
69334;SDS011;56477;52.742;15.242;2022-12-07T00:32:32;15.45;;;5.57;;
69334;SDS011;56477;52.742;15.242;2022-12-07T00:34:58;17.92;;;6.50;;
69334;SDS011;56477;52.742;15.242;2022-12-07T00:37:24;19.60;;;7.03;;
69334;SDS011;56477;52.742;15.242;2022-12-07T00:39:49;15.10;;;6.18;;
69334;SDS011;56477;52.742;15.242;2022-12-07T00:42:15;17.80;;;6.22;;
69334;SDS011;56477;52.742;15.242;2022-12-07T00:44:41;17.97;;;7.07;;
69334;SDS011;56477;52.742;15.242;2022-12-07T00:47:10;15.48;;;6.00;;
69334;SDS011;56477;52.742;15.242;2022-12-07T00:49:36;12.63;;;4.57;;
69334;SDS011;56477;52.742;15.242;2022-12-07T00:52:02;14.40;;;4.85;;
69334;SDS011;56477;52.742;15.242;2022-12-07T00:54:28;16.10;;;5.80;;
69334;SDS011;56477;52.742;15.242;2022-12-07T00:56:54;11.63;;;4.78;;
69334;SDS011;56477;52.742;15.242;2022-12-07T00:59:19;19.17;;;7.55;;
69334;SDS011;56477;52.742;15.242;2022-12-07T01:01:45;16.90;;;5.50;;
69334;SDS011;56477;52.742;15.242;2022-12-07T01:04:11;16.73;;;6.03;;
69334;SDS011;56477;52.742;15.242;2022-12-07T01:06:37;18.65;;;6.95;;
69334;SDS011;56477;52.742;15.242;2022-12-07T01:09:03;16.10;;;6.25;;
69334;SDS011;56477;52.742;15.242;2022-12-07T01:11:30;13.13;;;4.80;;
69334;SDS011;56477;52.742;15.242;2022-12-07T01:13:57;15.88;;;5.82;;
69334;SDS011;56477;52.742;15.242;2022-12-07T01:16:25;19.45;;;5.63;;
69334;SDS011;56477;52.742;15.242;2022-12-07T01:18:53;13.02;;;5.20;;
69334;SDS011;56477;52.742;15.242;2022-12-07T01:21:31;15.80;;;6.38;;
69334;SDS011;56477;52.742;15.242;2022-12-07T01:24:03;12.43;;;5.07;;
69334;SDS011;56477;52.742;15.242;2022-12-07T01:26:31;13.48;;;4.53;;
69334;SDS011;56477;52.742;15.242;2022-12-07T01:28:56;16.70;;;6.68;;
69334;SDS011;56477;52.742;15.242;2022-12-07T01:31:25;11.43;;;3.65;;
69334;SDS011;56477;52.742;15.242;2022-12-07T01:33:53;16.10;;;5.40;;
69334;SDS011;56477;52.742;15.242;2022-12-07T01:36:21;13.82;;;4.80;;
69334;SDS011;56477;52.742;15.242;2022-12-07T01:38:56;10.50;;;3.22;;
69334;SDS011;56477;52.742;15.242;2022-12-07T01:41:25;7.43;;;2.70;;
69334;SDS011;56477;52.742;15.242;2022-12-07T01:46:49;12.53;;;4.83;;
69334;SDS011;56477;52.742;15.242;2022-12-07T01:49:17;17.85;;;5.95;;
69334;SDS011;56477;52.742;15.242;2022-12-07T01:51:49;11.95;;;4.28;;
69334;SDS011;56477;52.742;15.242;2022-12-07T01:54:17;18.23;;;6.03;;
69334;SDS011;56477;52.742;15.242;2022-12-07T01:56:50;12.00;;;5.05;;
69334;SDS011;56477;52.742;15.242;2022-12-07T01:59:20;12.40;;;4.17;;
69334;SDS011;56477;52.742;15.242;2022-12-07T02:01:50;11.60;;;4.32;;
69334;SDS011;56477;52.742;15.242;2022-12-07T02:04:16;12.48;;;4.65;;
69334;SDS011;56477;52.742;15.242;2022-12-07T02:06:43;10.80;;;4.03;;
69334;SDS011;56477;52.742;15.242;2022-12-07T02:09:10;15.63;;;4.97;;
69334;SDS011;56477;52.742;15.242;2022-12-07T02:11:37;7.80;;;3.33;;
69334;SDS011;56477;52.742;15.242;2022-12-07T02:14:04;15.27;;;5.75;;
69334;SDS011;56477;52.742;15.242;2022-12-07T02:30:40;8.50;;;3.50;;
69334;SDS011;56477;52.742;15.242;2022-12-07T02:33:28;14.10;;;4.78;;
69334;SDS011;56477;52.742;15.242;2022-12-07T02:35:59;11.40;;;4.13;;
69334;SDS011;56477;52.742;15.242;2022-12-07T02:43:39;9.85;;;3.40;;
69334;SDS011;56477;52.742;15.242;2022-12-07T02:46:11;7.82;;;3.28;;
69334;SDS011;56477;52.742;15.242;2022-12-07T02:48:40;6.25;;;2.42;;
69334;SDS011;56477;52.742;15.242;2022-12-07T02:51:08;8.63;;;3.07;;
69334;SDS011;56477;52.742;15.242;2022-12-07T03:04:43;14.30;;;4.13;;
69334;SDS011;56477;52.742;15.242;2022-12-07T03:07:21;6.13;;;2.65;;
69334;SDS011;56477;52.742;15.242;2022-12-07T03:12:29;5.55;;;2.42;;
69334;SDS011;56477;52.742;15.242;2022-12-07T03:15:23;6.53;;;2.20;;
69334;SDS011;56477;52.742;15.242;2022-12-07T03:17:58;9.10;;;2.22;;
69334;SDS011;56477;52.742;15.242;2022-12-07T03:20:27;12.00;;;4.30;;
69334;SDS011;56477;52.742;15.242;2022-12-07T03:22:55;7.45;;;2.97;;
69334;SDS011;56477;52.742;15.242;2022-12-07T03:25:22;8.70;;;3.72;;
69334;SDS011;56477;52.742;15.242;2022-12-07T03:27:58;10.10;;;3.90;;
69334;SDS011;56477;52.742;15.242;2022-12-07T03:30:29;11.18;;;2.95;;
69334;SDS011;56477;52.742;15.242;2022-12-07T03:33:06;7.53;;;2.90;;
69334;SDS011;56477;52.742;15.242;2022-12-07T03:35:45;7.20;;;2.67;;
69334;SDS011;56477;52.742;15.242;2022-12-07T03:38:20;5.82;;;2.10;;
69334;SDS011;56477;52.742;15.242;2022-12-07T03:43:25;8.25;;;3.08;;
69334;SDS011;56477;52.742;15.242;2022-12-07T03:48:33;6.13;;;2.10;;
69334;SDS011;56477;52.742;15.242;2022-12-07T03:53:49;8.98;;;3.58;;
69334;SDS011;56477;52.742;15.242;2022-12-07T03:56:20;6.57;;;2.58;;
69334;SDS011;56477;52.742;15.242;2022-12-07T03:58:47;6.20;;;2.58;;
69334;SDS011;56477;52.742;15.242;2022-12-07T04:01:14;8.60;;;3.30;;
69334;SDS011;56477;52.742;15.242;2022-12-07T04:03:39;7.25;;;2.95;;
69334;SDS011;56477;52.742;15.242;2022-12-07T04:06:05;10.63;;;3.50;;
69334;SDS011;56477;52.742;15.242;2022-12-07T04:08:31;6.27;;;2.30;;
69334;SDS011;56477;52.742;15.242;2022-12-07T04:10:57;8.37;;;2.53;;
69334;SDS011;56477;52.742;15.242;2022-12-07T04:13:23;8.88;;;3.10;;
69334;SDS011;56477;52.742;15.242;2022-12-07T04:15:49;6.38;;;3.03;;
69334;SDS011;56477;52.742;15.242;2022-12-07T04:18:15;9.83;;;3.80;;
69334;SDS011;56477;52.742;15.242;2022-12-07T04:20:41;6.35;;;2.40;;
69334;SDS011;56477;52.742;15.242;2022-12-07T04:23:06;3.63;;;1.67;;
69334;SDS011;56477;52.742;15.242;2022-12-07T04:25:32;8.55;;;3.17;;
69334;SDS011;56477;52.742;15.242;2022-12-07T04:27:58;8.07;;;2.80;;
69334;SDS011;56477;52.742;15.242;2022-12-07T04:30:25;5.95;;;2.05;;
69334;SDS011;56477;52.742;15.242;2022-12-07T04:32:50;7.17;;;3.23;;
69334;SDS011;56477;52.742;15.242;2022-12-07T04:35:16;10.20;;;2.90;;
69334;SDS011;56477;52.742;15.242;2022-12-07T04:37:42;6.43;;;2.20;;
69334;SDS011;56477;52.742;15.242;2022-12-07T04:40:08;7.50;;;2.53;;
69334;SDS011;56477;52.742;15.242;2022-12-07T04:42:36;8.88;;;2.95;;
69334;SDS011;56477;52.742;15.242;2022-12-07T04:45:03;4.07;;;1.25;;
69334;SDS011;56477;52.742;15.242;2022-12-07T04:47:29;4.95;;;1.52;;
69334;SDS011;56477;52.742;15.242;2022-12-07T04:49:55;3.47;;;1.20;;
69334;SDS011;56477;52.742;15.242;2022-12-07T04:52:21;3.60;;;1.45;;
69334;SDS011;56477;52.742;15.242;2022-12-07T04:54:47;6.43;;;2.25;;
69334;SDS011;56477;52.742;15.242;2022-12-07T04:57:13;7.13;;;2.27;;
69334;SDS011;56477;52.742;15.242;2022-12-07T04:59:39;5.85;;;1.85;;
69334;SDS011;56477;52.742;15.242;2022-12-07T05:02:05;7.78;;;3.25;;
69334;SDS011;56477;52.742;15.242;2022-12-07T05:04:31;9.07;;;2.87;;
69334;SDS011;56477;52.742;15.242;2022-12-07T05:06:56;7.82;;;2.67;;
69334;SDS011;56477;52.742;15.242;2022-12-07T05:09:23;9.65;;;3.25;;
69334;SDS011;56477;52.742;15.242;2022-12-07T05:11:48;8.40;;;3.00;;
69334;SDS011;56477;52.742;15.242;2022-12-07T05:14:16;7.47;;;2.83;;
69334;SDS011;56477;52.742;15.242;2022-12-07T05:16:44;8.63;;;2.47;;
69334;SDS011;56477;52.742;15.242;2022-12-07T05:19:13;11.68;;;3.55;;
69334;SDS011;56477;52.742;15.242;2022-12-07T05:21:39;9.10;;;3.83;;
69334;SDS011;56477;52.742;15.242;2022-12-07T05:24:05;14.13;;;4.15;;
69334;SDS011;56477;52.742;15.242;2022-12-07T05:26:32;14.73;;;5.85;;
69334;SDS011;56477;52.742;15.242;2022-12-07T05:28:59;11.13;;;4.28;;
69334;SDS011;56477;52.742;15.242;2022-12-07T05:31:25;11.47;;;4.50;;
69334;SDS011;56477;52.742;15.242;2022-12-07T05:33:52;16.55;;;5.65;;
69334;SDS011;56477;52.742;15.242;2022-12-07T05:36:18;12.90;;;3.65;;
69334;SDS011;56477;52.742;15.242;2022-12-07T05:38:45;14.20;;;5.03;;
69334;SDS011;56477;52.742;15.242;2022-12-07T05:41:12;11.97;;;3.73;;
69334;SDS011;56477;52.742;15.242;2022-12-07T05:44:15;10.65;;;3.72;;
69334;SDS011;56477;52.742;15.242;2022-12-07T05:46:41;12.25;;;4.50;;
69334;SDS011;56477;52.742;15.242;2022-12-07T05:49:07;17.33;;;6.07;;
69334;SDS011;56477;52.742;15.242;2022-12-07T05:51:33;13.13;;;4.40;;
69334;SDS011;56477;52.742;15.242;2022-12-07T05:53:59;12.40;;;3.35;;
69334;SDS011;56477;52.742;15.242;2022-12-07T05:56:25;22.50;;;6.43;;
69334;SDS011;56477;52.742;15.242;2022-12-07T05:58:52;21.88;;;6.85;;
69334;SDS011;56477;52.742;15.242;2022-12-07T06:01:36;15.98;;;5.70;;
69334;SDS011;56477;52.742;15.242;2022-12-07T06:04:03;20.05;;;7.18;;
69334;SDS011;56477;52.742;15.242;2022-12-07T06:06:29;17.67;;;6.45;;
69334;SDS011;56477;52.742;15.242;2022-12-07T06:08:55;21.80;;;6.10;;
69334;SDS011;56477;52.742;15.242;2022-12-07T06:11:20;18.25;;;5.40;;
69334;SDS011;56477;52.742;15.242;2022-12-07T06:14:05;13.55;;;5.07;;
69334;SDS011;56477;52.742;15.242;2022-12-07T06:16:31;15.47;;;5.80;;
69334;SDS011;56477;52.742;15.242;2022-12-07T06:18:57;22.23;;;6.95;;
69334;SDS011;56477;52.742;15.242;2022-12-07T06:21:23;10.63;;;4.15;;
69334;SDS011;56477;52.742;15.242;2022-12-07T06:23:51;17.17;;;5.97;;
69334;SDS011;56477;52.742;15.242;2022-12-07T06:26:17;11.13;;;3.83;;
69334;SDS011;56477;52.742;15.242;2022-12-07T06:28:43;19.80;;;6.60;;
69334;SDS011;56477;52.742;15.242;2022-12-07T06:31:08;14.70;;;4.87;;
69334;SDS011;56477;52.742;15.242;2022-12-07T06:33:35;13.02;;;3.75;;
69334;SDS011;56477;52.742;15.242;2022-12-07T06:36:01;26.08;;;7.82;;
69334;SDS011;56477;52.742;15.242;2022-12-07T06:38:27;16.67;;;5.53;;
69334;SDS011;56477;52.742;15.242;2022-12-07T06:40:53;15.27;;;4.40;;
69334;SDS011;56477;52.742;15.242;2022-12-07T06:43:19;29.63;;;9.05;;
69334;SDS011;56477;52.742;15.242;2022-12-07T06:45:45;22.13;;;6.87;;
69334;SDS011;56477;52.742;15.242;2022-12-07T06:48:11;15.70;;;5.57;;
69334;SDS011;56477;52.742;15.242;2022-12-07T06:50:36;30.90;;;9.23;;
69334;SDS011;56477;52.742;15.242;2022-12-07T06:53:02;24.53;;;8.53;;
69334;SDS011;56477;52.742;15.242;2022-12-07T06:55:28;28.52;;;8.18;;
69334;SDS011;56477;52.742;15.242;2022-12-07T06:57:54;29.17;;;9.23;;
69334;SDS011;56477;52.742;15.242;2022-12-07T07:00:20;24.13;;;7.83;;
69334;SDS011;56477;52.742;15.242;2022-12-07T07:02:46;15.85;;;5.55;;
69334;SDS011;56477;52.742;15.242;2022-12-07T07:05:12;25.80;;;7.60;;
69334;SDS011;56477;52.742;15.242;2022-12-07T07:07:38;14.93;;;4.70;;
69334;SDS011;56477;52.742;15.242;2022-12-07T07:10:04;19.80;;;6.20;;
69334;SDS011;56477;52.742;15.242;2022-12-07T07:12:30;27.20;;;8.45;;
69334;SDS011;56477;52.742;15.242;2022-12-07T07:14:56;21.10;;;7.80;;
69334;SDS011;56477;52.742;15.242;2022-12-07T07:17:22;22.17;;;7.80;;
69334;SDS011;56477;52.742;15.242;2022-12-07T07:19:48;23.73;;;8.57;;
69334;SDS011;56477;52.742;15.242;2022-12-07T07:22:14;33.42;;;10.02;;
69334;SDS011;56477;52.742;15.242;2022-12-07T07:24:40;20.95;;;6.40;;
69334;SDS011;56477;52.742;15.242;2022-12-07T07:27:06;33.03;;;9.95;;
69334;SDS011;56477;52.742;15.242;2022-12-07T07:29:32;23.03;;;8.37;;
69334;SDS011;56477;52.742;15.242;2022-12-07T07:31:58;19.80;;;7.72;;
69334;SDS011;56477;52.742;15.242;2022-12-07T07:34:25;21.23;;;7.88;;
69334;SDS011;56477;52.742;15.242;2022-12-07T07:36:51;37.80;;;11.00;;
69334;SDS011;56477;52.742;15.242;2022-12-07T07:39:16;18.70;;;7.60;;
69334;SDS011;56477;52.742;15.242;2022-12-07T07:41:42;26.08;;;9.05;;
69334;SDS011;56477;52.742;15.242;2022-12-07T07:44:09;29.23;;;9.43;;
69334;SDS011;56477;52.742;15.242;2022-12-07T07:46:35;24.55;;;7.63;;
69334;SDS011;56477;52.742;15.242;2022-12-07T07:49:01;25.85;;;10.65;;
69334;SDS011;56477;52.742;15.242;2022-12-07T07:51:27;43.42;;;15.70;;
69334;SDS011;56477;52.742;15.242;2022-12-07T07:53:53;32.23;;;11.30;;
69334;SDS011;56477;52.742;15.242;2022-12-07T07:56:19;30.38;;;9.50;;
69334;SDS011;56477;52.742;15.242;2022-12-07T07:58:45;28.50;;;8.87;;
69334;SDS011;56477;52.742;15.242;2022-12-07T08:01:11;30.17;;;8.90;;
69334;SDS011;56477;52.742;15.242;2022-12-07T08:03:38;25.55;;;8.63;;
69334;SDS011;56477;52.742;15.242;2022-12-07T08:06:05;25.20;;;8.70;;
69334;SDS011;56477;52.742;15.242;2022-12-07T08:08:31;24.83;;;8.60;;
69334;SDS011;56477;52.742;15.242;2022-12-07T08:10:57;21.73;;;8.43;;
69334;SDS011;56477;52.742;15.242;2022-12-07T08:13:26;22.52;;;5.85;;
69334;SDS011;56477;52.742;15.242;2022-12-07T08:15:52;24.42;;;10.25;;
69334;SDS011;56477;52.742;15.242;2022-12-07T08:18:18;27.20;;;9.30;;
69334;SDS011;56477;52.742;15.242;2022-12-07T08:20:44;16.83;;;6.90;;
69334;SDS011;56477;52.742;15.242;2022-12-07T08:23:10;22.95;;;8.80;;
69334;SDS011;56477;52.742;15.242;2022-12-07T08:25:36;15.95;;;5.80;;
69334;SDS011;56477;52.742;15.242;2022-12-07T08:28:02;23.10;;;9.23;;
69334;SDS011;56477;52.742;15.242;2022-12-07T08:30:29;28.05;;;8.77;;
69334;SDS011;56477;52.742;15.242;2022-12-07T08:32:55;28.83;;;11.40;;
69334;SDS011;56477;52.742;15.242;2022-12-07T08:35:22;41.13;;;11.98;;
69334;SDS011;56477;52.742;15.242;2022-12-07T08:37:48;22.50;;;7.40;;
69334;SDS011;56477;52.742;15.242;2022-12-07T08:40:14;19.15;;;6.95;;
69334;SDS011;56477;52.742;15.242;2022-12-07T08:42:41;34.25;;;9.93;;
69334;SDS011;56477;52.742;15.242;2022-12-07T08:45:14;37.97;;;14.73;;
69334;SDS011;56477;52.742;15.242;2022-12-07T08:47:42;33.78;;;13.15;;
69334;SDS011;56477;52.742;15.242;2022-12-07T08:50:11;30.17;;;11.50;;
69334;SDS011;56477;52.742;15.242;2022-12-07T08:52:38;21.52;;;9.05;;
69334;SDS011;56477;52.742;15.242;2022-12-07T08:55:06;19.38;;;7.95;;
69334;SDS011;56477;52.742;15.242;2022-12-07T08:57:32;32.47;;;9.82;;
69334;SDS011;56477;52.742;15.242;2022-12-07T09:00:01;34.92;;;12.23;;
69334;SDS011;56477;52.742;15.242;2022-12-07T09:02:27;29.23;;;10.93;;
69334;SDS011;56477;52.742;15.242;2022-12-07T09:04:54;34.28;;;12.82;;
69334;SDS011;56477;52.742;15.242;2022-12-07T09:07:19;31.42;;;9.20;;
69334;SDS011;56477;52.742;15.242;2022-12-07T09:09:45;49.63;;;13.77;;
69334;SDS011;56477;52.742;15.242;2022-12-07T09:12:11;19.70;;;9.07;;
69334;SDS011;56477;52.742;15.242;2022-12-07T09:14:37;35.03;;;11.88;;
69334;SDS011;56477;52.742;15.242;2022-12-07T09:17:10;36.67;;;13.60;;
69334;SDS011;56477;52.742;15.242;2022-12-07T09:19:37;35.35;;;11.75;;
69334;SDS011;56477;52.742;15.242;2022-12-07T09:22:04;42.00;;;13.32;;
69334;SDS011;56477;52.742;15.242;2022-12-07T09:24:31;26.13;;;10.02;;
69334;SDS011;56477;52.742;15.242;2022-12-07T09:26:57;32.70;;;8.88;;
69334;SDS011;56477;52.742;15.242;2022-12-07T09:29:23;20.63;;;8.40;;
69334;SDS011;56477;52.742;15.242;2022-12-07T09:31:50;33.13;;;13.77;;
69334;SDS011;56477;52.742;15.242;2022-12-07T09:34:17;31.10;;;11.70;;
69334;SDS011;56477;52.742;15.242;2022-12-07T09:36:43;31.27;;;11.45;;
69334;SDS011;56477;52.742;15.242;2022-12-07T09:39:09;45.33;;;12.80;;
69334;SDS011;56477;52.742;15.242;2022-12-07T09:41:39;21.20;;;8.00;;
69334;SDS011;56477;52.742;15.242;2022-12-07T09:44:12;29.08;;;10.07;;
69334;SDS011;56477;52.742;15.242;2022-12-07T09:46:40;25.58;;;9.57;;
69334;SDS011;56477;52.742;15.242;2022-12-07T09:49:11;37.03;;;12.05;;
69334;SDS011;56477;52.742;15.242;2022-12-07T09:51:41;20.03;;;8.77;;
69334;SDS011;56477;52.742;15.242;2022-12-07T09:54:08;19.42;;;7.13;;
69334;SDS011;56477;52.742;15.242;2022-12-07T09:56:37;20.13;;;8.38;;
69334;SDS011;56477;52.742;15.242;2022-12-07T09:59:03;16.38;;;6.80;;
69334;SDS011;56477;52.742;15.242;2022-12-07T10:01:30;23.80;;;8.20;;
69334;SDS011;56477;52.742;15.242;2022-12-07T10:04:11;22.08;;;8.05;;
69334;SDS011;56477;52.742;15.242;2022-12-07T10:06:41;24.08;;;8.63;;
69334;SDS011;56477;52.742;15.242;2022-12-07T10:09:11;20.20;;;7.10;;
69334;SDS011;56477;52.742;15.242;2022-12-07T10:14:48;22.10;;;7.60;;
69334;SDS011;56477;52.742;15.242;2022-12-07T10:23:02;19.73;;;7.97;;
69334;SDS011;56477;52.742;15.242;2022-12-07T10:25:31;16.70;;;6.78;;
69334;SDS011;56477;52.742;15.242;2022-12-07T10:28:17;20.80;;;6.60;;
69334;SDS011;56477;52.742;15.242;2022-12-07T10:33:55;19.00;;;7.60;;
69334;SDS011;56477;52.742;15.242;2022-12-07T10:36:16;13.55;;;5.30;;
69334;SDS011;56477;52.742;15.242;2022-12-07T10:38:53;21.45;;;7.43;;
69334;SDS011;56477;52.742;15.242;2022-12-07T10:41:26;13.27;;;5.33;;
69334;SDS011;56477;52.742;15.242;2022-12-07T10:43:52;14.02;;;5.18;;
69334;SDS011;56477;52.742;15.242;2022-12-07T10:49:35;14.38;;;5.93;;
69334;SDS011;56477;52.742;15.242;2022-12-07T10:52:16;10.97;;;5.10;;
69334;SDS011;56477;52.742;15.242;2022-12-07T11:00:08;7.35;;;2.65;;
69334;SDS011;56477;52.742;15.242;2022-12-07T11:06:05;8.57;;;3.33;;
69334;SDS011;56477;52.742;15.242;2022-12-07T11:09:40;7.78;;;3.72;;
69334;SDS011;56477;52.742;15.242;2022-12-07T11:11:36;5.65;;;2.80;;
69334;SDS011;56477;52.742;15.242;2022-12-07T11:14:25;9.35;;;3.53;;
69334;SDS011;56477;52.742;15.242;2022-12-07T11:19:49;6.33;;;2.97;;
69334;SDS011;56477;52.742;15.242;2022-12-07T11:22:41;7.00;;;2.33;;
69334;SDS011;56477;52.742;15.242;2022-12-07T11:25:34;5.65;;;2.15;;
69334;SDS011;56477;52.742;15.242;2022-12-07T11:33:46;3.97;;;1.60;;
69334;SDS011;56477;52.742;15.242;2022-12-07T11:42:06;5.53;;;1.80;;
69334;SDS011;56477;52.742;15.242;2022-12-07T11:47:28;3.97;;;1.40;;
69334;SDS011;56477;52.742;15.242;2022-12-07T11:50:21;5.07;;;2.10;;
69334;SDS011;56477;52.742;15.242;2022-12-07T11:53:00;6.93;;;3.10;;
69334;SDS011;56477;52.742;15.242;2022-12-07T12:00:58;6.77;;;2.67;;
69334;SDS011;56477;52.742;15.242;2022-12-07T12:03:33;6.50;;;2.70;;
69334;SDS011;56477;52.742;15.242;2022-12-07T12:06:02;8.95;;;3.35;;
69334;SDS011;56477;52.742;15.242;2022-12-07T12:08:33;6.22;;;3.63;;
69334;SDS011;56477;52.742;15.242;2022-12-07T12:19:32;4.80;;;1.60;;
69334;SDS011;56477;52.742;15.242;2022-12-07T12:22:18;3.65;;;1.60;;
69334;SDS011;56477;52.742;15.242;2022-12-07T12:24:49;4.03;;;1.33;;
69334;SDS011;56477;52.742;15.242;2022-12-07T12:27:23;4.47;;;1.55;;
69334;SDS011;56477;52.742;15.242;2022-12-07T12:29:54;5.05;;;1.63;;
69334;SDS011;56477;52.742;15.242;2022-12-07T12:32:43;7.03;;;2.10;;
69334;SDS011;56477;52.742;15.242;2022-12-07T12:35:27;4.57;;;1.00;;
69334;SDS011;56477;52.742;15.242;2022-12-07T12:37:54;4.13;;;1.07;;
69334;SDS011;56477;52.742;15.242;2022-12-07T12:42:50;3.45;;;1.05;;
69334;SDS011;56477;52.742;15.242;2022-12-07T12:47:59;4.47;;;1.40;;
69334;SDS011;56477;52.742;15.242;2022-12-07T12:50:28;3.60;;;1.20;;
69334;SDS011;56477;52.742;15.242;2022-12-07T12:58:31;4.07;;;1.23;;
69334;SDS011;56477;52.742;15.242;2022-12-07T13:03:53;5.70;;;1.88;;
69334;SDS011;56477;52.742;15.242;2022-12-07T13:08:49;4.35;;;1.95;;
69334;SDS011;56477;52.742;15.242;2022-12-07T13:11:18;5.30;;;1.60;;
69334;SDS011;56477;52.742;15.242;2022-12-07T13:13:57;4.13;;;1.75;;
69334;SDS011;56477;52.742;15.242;2022-12-07T13:16:56;4.47;;;1.25;;
69334;SDS011;56477;52.742;15.242;2022-12-07T13:20:06;4.75;;;1.65;;
69334;SDS011;56477;52.742;15.242;2022-12-07T13:24:56;3.30;;;1.10;;
69334;SDS011;56477;52.742;15.242;2022-12-07T13:27:41;2.50;;;1.10;;
69334;SDS011;56477;52.742;15.242;2022-12-07T13:30:16;2.47;;;1.10;;
69334;SDS011;56477;52.742;15.242;2022-12-07T13:32:56;3.75;;;1.25;;
69334;SDS011;56477;52.742;15.242;2022-12-07T13:38:14;3.03;;;1.00;;
69334;SDS011;56477;52.742;15.242;2022-12-07T13:41:03;3.60;;;1.05;;
69334;SDS011;56477;52.742;15.242;2022-12-07T13:43:43;3.28;;;1.00;;
69334;SDS011;56477;52.742;15.242;2022-12-07T13:46:15;4.63;;;1.77;;
69334;SDS011;56477;52.742;15.242;2022-12-07T13:48:44;4.60;;;1.35;;
69334;SDS011;56477;52.742;15.242;2022-12-07T13:51:19;3.13;;;1.50;;
69334;SDS011;56477;52.742;15.242;2022-12-07T13:53:48;2.97;;;0.82;;
69334;SDS011;56477;52.742;15.242;2022-12-07T13:56:16;4.32;;;1.52;;
69334;SDS011;56477;52.742;15.242;2022-12-07T13:58:43;3.78;;;1.58;;
69334;SDS011;56477;52.742;15.242;2022-12-07T14:01:09;4.13;;;1.40;;
69334;SDS011;56477;52.742;15.242;2022-12-07T14:03:35;6.73;;;1.73;;
69334;SDS011;56477;52.742;15.242;2022-12-07T14:08:45;4.78;;;1.48;;
69334;SDS011;56477;52.742;15.242;2022-12-07T14:11:16;6.00;;;1.17;;
69334;SDS011;56477;52.742;15.242;2022-12-07T14:13:45;3.85;;;1.52;;
69334;SDS011;56477;52.742;15.242;2022-12-07T14:16:29;4.47;;;1.40;;
69334;SDS011;56477;52.742;15.242;2022-12-07T14:19:02;4.30;;;1.40;;
69334;SDS011;56477;52.742;15.242;2022-12-07T14:21:30;8.32;;;2.92;;
69334;SDS011;56477;52.742;15.242;2022-12-07T14:26:37;4.45;;;1.52;;
69334;SDS011;56477;52.742;15.242;2022-12-07T14:31:56;9.07;;;2.90;;
69334;SDS011;56477;52.742;15.242;2022-12-07T14:34:24;3.85;;;1.63;;
69334;SDS011;56477;52.742;15.242;2022-12-07T14:36:51;4.97;;;1.73;;
69334;SDS011;56477;52.742;15.242;2022-12-07T14:39:17;4.93;;;1.85;;
69334;SDS011;56477;52.742;15.242;2022-12-07T14:41:42;4.90;;;1.47;;
69334;SDS011;56477;52.742;15.242;2022-12-07T14:44:19;4.60;;;1.48;;
69334;SDS011;56477;52.742;15.242;2022-12-07T14:46:46;5.80;;;1.83;;
69334;SDS011;56477;52.742;15.242;2022-12-07T14:49:16;3.33;;;1.10;;
69334;SDS011;56477;52.742;15.242;2022-12-07T14:51:42;5.75;;;1.92;;
69334;SDS011;56477;52.742;15.242;2022-12-07T14:54:18;3.70;;;1.52;;
69334;SDS011;56477;52.742;15.242;2022-12-07T14:56:45;5.40;;;1.75;;
69334;SDS011;56477;52.742;15.242;2022-12-07T14:59:15;3.40;;;1.48;;
69334;SDS011;56477;52.742;15.242;2022-12-07T15:01:42;4.13;;;1.63;;
69334;SDS011;56477;52.742;15.242;2022-12-07T15:04:08;7.22;;;1.80;;
69334;SDS011;56477;52.742;15.242;2022-12-07T15:06:33;4.72;;;1.85;;
69334;SDS011;56477;52.742;15.242;2022-12-07T15:09:00;4.65;;;1.25;;
69334;SDS011;56477;52.742;15.242;2022-12-07T15:11:26;1.97;;;0.77;;
69334;SDS011;56477;52.742;15.242;2022-12-07T15:13:52;4.05;;;1.35;;
69334;SDS011;56477;52.742;15.242;2022-12-07T15:16:34;4.70;;;1.48;;
69334;SDS011;56477;52.742;15.242;2022-12-07T15:19:01;6.80;;;1.25;;
69334;SDS011;56477;52.742;15.242;2022-12-07T15:21:27;5.30;;;1.52;;
69334;SDS011;56477;52.742;15.242;2022-12-07T15:23:53;8.30;;;2.00;;
69334;SDS011;56477;52.742;15.242;2022-12-07T15:26:19;5.30;;;2.22;;
69334;SDS011;56477;52.742;15.242;2022-12-07T15:28:45;5.15;;;2.20;;
69334;SDS011;56477;52.742;15.242;2022-12-07T15:31:12;8.80;;;2.37;;
69334;SDS011;56477;52.742;15.242;2022-12-07T15:33:39;7.03;;;3.20;;
69334;SDS011;56477;52.742;15.242;2022-12-07T15:36:05;2.65;;;1.05;;
69334;SDS011;56477;52.742;15.242;2022-12-07T15:38:31;10.23;;;3.70;;
69334;SDS011;56477;52.742;15.242;2022-12-07T15:40:57;6.93;;;2.53;;
69334;SDS011;56477;52.742;15.242;2022-12-07T15:43:23;3.92;;;1.52;;
69334;SDS011;56477;52.742;15.242;2022-12-07T15:46:08;9.40;;;3.22;;
69334;SDS011;56477;52.742;15.242;2022-12-07T15:48:34;6.55;;;2.80;;
69334;SDS011;56477;52.742;15.242;2022-12-07T15:51:03;5.70;;;2.73;;
69334;SDS011;56477;52.742;15.242;2022-12-07T15:53:33;9.38;;;3.80;;
69334;SDS011;56477;52.742;15.242;2022-12-07T15:56:00;6.60;;;2.53;;
69334;SDS011;56477;52.742;15.242;2022-12-07T15:58:26;6.72;;;1.50;;
69334;SDS011;56477;52.742;15.242;2022-12-07T16:00:52;7.47;;;1.97;;
69334;SDS011;56477;52.742;15.242;2022-12-07T16:03:18;7.88;;;3.00;;
69334;SDS011;56477;52.742;15.242;2022-12-07T16:05:50;5.47;;;1.92;;
69334;SDS011;56477;52.742;15.242;2022-12-07T16:08:19;5.22;;;1.75;;
69334;SDS011;56477;52.742;15.242;2022-12-07T16:10:45;3.50;;;1.10;;
69334;SDS011;56477;52.742;15.242;2022-12-07T16:13:11;6.72;;;2.05;;
69334;SDS011;56477;52.742;15.242;2022-12-07T16:15:42;2.60;;;0.70;;
69334;SDS011;56477;52.742;15.242;2022-12-07T16:18:08;6.82;;;2.35;;
69334;SDS011;56477;52.742;15.242;2022-12-07T16:20:34;4.63;;;1.47;;
69334;SDS011;56477;52.742;15.242;2022-12-07T16:23:00;5.15;;;1.60;;
69334;SDS011;56477;52.742;15.242;2022-12-07T16:25:26;7.60;;;2.17;;
69334;SDS011;56477;52.742;15.242;2022-12-07T16:27:52;9.07;;;1.80;;
69334;SDS011;56477;52.742;15.242;2022-12-07T16:30:18;5.10;;;1.90;;
69334;SDS011;56477;52.742;15.242;2022-12-07T16:32:45;8.93;;;2.35;;
69334;SDS011;56477;52.742;15.242;2022-12-07T16:35:11;4.95;;;1.60;;
69334;SDS011;56477;52.742;15.242;2022-12-07T16:37:38;6.32;;;1.70;;
69334;SDS011;56477;52.742;15.242;2022-12-07T16:40:04;4.95;;;1.90;;
69334;SDS011;56477;52.742;15.242;2022-12-07T16:42:31;8.80;;;1.67;;
69334;SDS011;56477;52.742;15.242;2022-12-07T16:44:58;6.28;;;1.55;;